createdAt,value
2018-12-14T00:01:21.486Z,32.90
2018-12-14T00:03:52.224Z,32.90
2018-12-14T00:06:23.566Z,32.80
2018-12-14T00:08:52.805Z,33.00
2018-12-14T00:11:22.111Z,33.00
2018-12-14T00:13:51.424Z,32.90
2018-12-14T00:16:20.708Z,32.90
2018-12-14T00:18:50.004Z,32.90
2018-12-14T00:21:20.377Z,32.90
2018-12-14T00:23:49.780Z,32.80
2018-12-14T00:26:19.082Z,32.90
2018-12-14T00:28:48.376Z,32.80
2018-12-14T00:31:23.907Z,32.80
2018-12-14T00:33:53.195Z,32.80
2018-12-14T00:36:22.591Z,32.80
2018-12-14T00:38:52.138Z,32.90
2018-12-14T00:41:21.391Z,32.70
2018-12-14T00:43:50.621Z,32.70
2018-12-14T00:46:19.913Z,32.80
2018-12-14T00:48:49.209Z,32.70
2018-12-14T00:51:18.602Z,32.80
2018-12-14T00:53:47.900Z,32.80
2018-12-14T00:56:17.162Z,32.70
2018-12-14T00:58:46.424Z,32.80
2018-12-14T01:01:15.637Z,32.80
2018-12-14T01:03:45.068Z,32.70
2018-12-14T01:06:14.360Z,32.70
2018-12-14T01:08:50.710Z,32.80
2018-12-14T01:11:19.999Z,32.70
2018-12-14T01:13:49.334Z,32.70
2018-12-14T01:16:18.630Z,32.60
2018-12-14T01:18:47.980Z,32.60
2018-12-14T01:21:17.304Z,32.60
2018-12-14T01:23:46.578Z,32.60
2018-12-14T01:26:15.911Z,32.70
2018-12-14T01:28:45.239Z,32.60
2018-12-14T01:31:14.536Z,32.60
2018-12-14T01:33:43.839Z,32.70
2018-12-14T01:36:13.119Z,32.60
2018-12-14T01:38:42.436Z,32.60
2018-12-14T01:41:11.629Z,32.60
2018-12-14T01:43:40.860Z,32.70
2018-12-14T01:46:10.189Z,32.70
2018-12-14T01:48:39.496Z,32.60
2018-12-14T01:51:08.714Z,32.60
2018-12-14T01:53:38.032Z,32.50
2018-12-14T01:56:07.316Z,32.60
2018-12-14T01:58:36.617Z,32.60
2018-12-14T02:01:05.952Z,32.60
2018-12-14T02:03:35.454Z,32.40
2018-12-14T02:06:04.762Z,32.40
2018-12-14T02:08:34.109Z,32.30
2018-12-14T02:11:04.394Z,32.50
2018-12-14T02:13:33.749Z,32.60
2018-12-14T02:16:03.083Z,32.50
2018-12-14T02:18:32.473Z,32.30
2018-12-14T02:21:01.773Z,32.30
2018-12-14T02:23:31.095Z,32.30
2018-12-14T02:26:00.383Z,32.40
2018-12-14T02:28:29.671Z,32.30
2018-12-14T02:30:59.008Z,32.40
2018-12-14T02:33:28.314Z,32.40
2018-12-14T02:35:57.597Z,32.30
2018-12-14T02:38:26.972Z,32.30
2018-12-14T02:40:56.346Z,32.30
2018-12-14T02:43:25.898Z,32.30
2018-12-14T02:45:56.310Z,32.40
2018-12-14T02:51:07.207Z,32.30
2018-12-14T02:53:36.417Z,32.30
2018-12-14T02:56:05.631Z,32.20
2018-12-14T02:58:34.903Z,32.20
2018-12-14T03:01:04.207Z,32.30
2018-12-14T03:03:33.498Z,32.30
2018-12-14T03:06:02.860Z,32.20
2018-12-14T03:08:32.143Z,32.30
2018-12-14T03:11:01.613Z,32.30
2018-12-14T03:13:30.954Z,32.30
2018-12-14T03:16:02.000Z,32.30
2018-12-14T03:18:31.602Z,32.30
2018-12-14T03:21:00.965Z,32.30
2018-12-14T03:23:30.243Z,32.30
2018-12-14T03:25:59.479Z,32.30
2018-12-14T03:28:28.913Z,32.20
2018-12-14T03:30:58.277Z,32.20
2018-12-14T03:33:27.698Z,32.30
2018-12-14T03:35:57.050Z,32.20
2018-12-14T03:38:26.279Z,32.20
2018-12-14T03:40:55.557Z,32.20
2018-12-14T03:43:24.799Z,32.30
2018-12-14T03:45:54.177Z,32.20
2018-12-14T03:48:23.456Z,32.20
2018-12-14T03:50:52.749Z,32.90
2018-12-14T03:53:22.112Z,32.10
2018-12-14T03:55:51.434Z,32.20
2018-12-14T03:58:20.734Z,32.10
2018-12-14T04:00:50.775Z,32.20
2018-12-14T04:03:20.141Z,32.10
2018-12-14T04:05:49.578Z,32.10
2018-12-14T04:08:18.898Z,32.10
2018-12-14T04:10:48.283Z,32.10
2018-12-14T04:13:26.228Z,32.20
2018-12-14T04:15:55.504Z,32.00
2018-12-14T04:18:24.912Z,32.00
2018-12-14T04:20:54.197Z,32.00
2018-12-14T04:23:23.594Z,32.10
2018-12-14T04:25:52.920Z,32.10
2018-12-14T04:28:22.994Z,32.00
2018-12-14T04:30:52.282Z,32.00
2018-12-14T04:33:21.615Z,32.00
2018-12-14T04:35:51.022Z,32.00
2018-12-14T04:38:22.384Z,32.00
2018-12-14T04:40:51.692Z,32.00
2018-12-14T04:43:21.003Z,32.00
2018-12-14T04:45:50.351Z,31.90
2018-12-14T04:48:19.690Z,32.00
2018-12-14T04:50:48.999Z,32.00
2018-12-14T04:53:18.246Z,32.00
2018-12-14T04:55:47.601Z,31.90
2018-12-14T04:58:16.919Z,32.00
2018-12-14T05:00:46.285Z,31.90
2018-12-14T05:03:15.608Z,31.90
2018-12-14T05:05:44.911Z,31.90
2018-12-14T05:08:14.227Z,31.80
2018-12-14T05:10:43.621Z,31.90
2018-12-14T05:13:12.972Z,31.80
2018-12-14T05:15:42.268Z,31.80
2018-12-14T05:18:11.492Z,31.80
2018-12-14T05:20:40.834Z,31.80
2018-12-14T05:23:10.175Z,31.70
2018-12-14T05:25:39.492Z,31.80
2018-12-14T05:28:08.821Z,31.80
2018-12-14T05:30:38.162Z,31.70
2018-12-14T05:33:07.529Z,31.80
2018-12-14T05:35:36.936Z,31.70
2018-12-14T05:38:06.217Z,31.70
2018-12-14T05:40:35.483Z,31.70
2018-12-14T05:43:04.849Z,31.80
2018-12-14T05:45:34.105Z,31.80
2018-12-14T05:48:03.448Z,31.80
2018-12-14T05:50:32.704Z,31.80
2018-12-14T05:53:02.007Z,31.80
2018-12-14T05:55:31.397Z,31.80
2018-12-14T05:58:00.668Z,31.90
2018-12-14T06:00:29.907Z,31.80
2018-12-14T06:02:59.307Z,31.80
2018-12-14T06:05:28.582Z,31.80
2018-12-14T06:07:57.973Z,31.70
2018-12-14T06:10:27.357Z,31.90
2018-12-14T06:13:08.891Z,31.80
2018-12-14T06:15:34.159Z,31.80
2018-12-14T06:18:03.428Z,31.90
2018-12-14T06:20:32.633Z,31.80
2018-12-14T06:23:01.820Z,31.90
2018-12-14T06:25:31.162Z,31.90
2018-12-14T06:30:42.116Z,31.90
2018-12-14T06:33:11.632Z,31.90
2018-12-14T06:35:41.131Z,31.90
2018-12-14T06:38:10.383Z,31.90
2018-12-14T06:40:48.038Z,31.80
2018-12-14T06:43:17.291Z,31.80
2018-12-14T06:48:28.888Z,31.80
2018-12-14T06:50:58.731Z,31.90
2018-12-14T06:53:28.080Z,32.40
2018-12-14T06:55:57.354Z,31.60
2018-12-14T06:58:26.750Z,31.70
2018-12-14T07:00:56.141Z,28.80
2018-12-14T07:03:25.858Z,28.90
2018-12-14T07:05:58.227Z,29.80
2018-12-14T07:08:27.641Z,30.60
2018-12-14T07:13:29.332Z,33.40
2018-12-14T07:15:58.788Z,32.00
2018-12-14T07:18:28.618Z,32.70
2018-12-14T07:23:47.740Z,33.20
2018-12-14T07:26:18.943Z,33.30
2018-12-14T07:28:56.776Z,33.80
2018-12-14T07:31:29.442Z,33.20
2018-12-14T07:33:59.086Z,33.80
2018-12-14T07:36:41.802Z,33.80
2018-12-14T07:39:27.610Z,33.90
2018-12-14T07:47:37.189Z,36.70
2018-12-14T07:50:07.473Z,36.80
2018-12-14T07:55:11.381Z,37.90
2018-12-14T07:57:41.259Z,39.00
2018-12-14T08:00:11.178Z,40.00
2018-12-14T08:02:41.636Z,39.90
2018-12-14T08:05:11.144Z,40.10
2018-12-14T08:07:44.508Z,41.20
2018-12-14T08:10:17.465Z,42.10
2018-12-14T08:12:50.090Z,43.90
2018-12-14T08:15:20.160Z,43.30
2018-12-14T08:17:49.814Z,42.90
2018-12-14T08:20:19.438Z,41.90
2018-12-14T08:22:49.787Z,40.50
2018-12-14T08:25:20.553Z,39.80
2018-12-14T08:27:51.412Z,39.10
2018-12-14T08:30:22.166Z,38.70
2018-12-14T08:32:51.955Z,38.40
2018-12-14T08:35:22.161Z,37.90
2018-12-14T08:37:51.821Z,37.40
2018-12-14T08:40:23.307Z,37.10
2018-12-14T08:42:52.979Z,36.80
2018-12-14T08:45:23.693Z,36.70
2018-12-14T08:47:54.140Z,36.40
2018-12-14T08:50:24.824Z,36.40
2018-12-14T08:53:05.376Z,36.20
2018-12-14T08:55:34.947Z,36.20
2018-12-14T08:58:04.240Z,36.10
2018-12-14T09:00:33.748Z,35.90
2018-12-14T09:03:03.386Z,35.90
2018-12-14T09:05:32.727Z,35.60
2018-12-14T09:08:02.258Z,35.50
2018-12-14T09:10:31.559Z,35.50
2018-12-14T09:13:00.993Z,35.40
2018-12-14T09:15:47.769Z,35.30
2018-12-14T09:23:55.567Z,36.70
2018-12-14T09:26:44.832Z,38.00
2018-12-14T09:29:16.777Z,40.00
2018-12-14T09:31:47.092Z,40.30
2018-12-14T09:34:16.547Z,41.00
2018-12-14T09:36:49.330Z,41.70
2018-12-14T09:39:19.274Z,42.40
2018-12-14T09:41:50.740Z,42.50
2018-12-14T09:44:20.795Z,43.00
2018-12-14T09:46:50.375Z,43.30
2018-12-14T09:49:21.725Z,43.50
2018-12-14T09:51:51.648Z,43.80
2018-12-14T09:54:21.199Z,44.30
2018-12-14T09:56:50.625Z,44.40
2018-12-14T09:59:20.009Z,44.80
2018-12-14T10:01:49.433Z,45.40
2018-12-14T10:04:19.019Z,45.40
2018-12-14T10:07:01.782Z,45.40
2018-12-14T10:09:38.485Z,42.10
2018-12-14T10:12:09.722Z,37.70
2018-12-14T10:14:39.438Z,38.60
2018-12-14T10:19:59.827Z,38.20
2018-12-14T10:22:30.779Z,41.10
2018-12-14T10:25:01.231Z,42.70
2018-12-14T10:27:38.287Z,43.70
2018-12-14T10:30:15.802Z,42.90
2018-12-14T10:32:46.018Z,43.50
2018-12-14T10:35:15.572Z,44.90
2018-12-14T10:37:46.723Z,43.70
2018-12-14T10:40:18.084Z,45.80
2018-12-14T10:42:49.464Z,50.10
2018-12-14T10:45:19.981Z,50.70
2018-12-14T10:47:51.099Z,49.70
2018-12-14T10:50:35.490Z,48.80
2018-12-14T10:53:04.606Z,48.50
2018-12-14T10:59:28.591Z,46.20
2018-12-14T11:01:58.030Z,46.00
2018-12-14T11:04:31.175Z,46.20
2018-12-14T11:07:22.974Z,40.60
2018-12-14T11:09:54.576Z,39.50
2018-12-14T11:12:25.463Z,41.30
2018-12-14T11:17:46.948Z,39.60
2018-12-14T11:20:17.255Z,45.00
2018-12-14T11:22:48.737Z,49.20
2018-12-14T11:25:27.631Z,50.00
2018-12-14T11:27:58.585Z,49.00
2018-12-14T11:30:29.070Z,49.40
2018-12-14T11:32:59.540Z,46.30
2018-12-14T11:35:38.267Z,46.10
2018-12-14T11:41:18.306Z,47.30
2018-12-14T11:43:50.130Z,48.60
2018-12-14T11:46:23.567Z,49.20
2018-12-14T11:48:53.205Z,50.60
2018-12-14T11:51:25.342Z,51.40
2018-12-14T11:53:55.441Z,50.00
2018-12-14T11:56:27.738Z,51.30
2018-12-14T11:58:58.082Z,49.70
2018-12-14T12:01:29.281Z,49.20
2018-12-14T12:04:05.600Z,49.10
2018-12-14T12:06:36.403Z,48.80
2018-12-14T12:09:09.008Z,45.50
2018-12-14T12:11:44.697Z,45.70
2018-12-14T12:14:19.546Z,46.20
2018-12-14T12:19:34.805Z,47.30
2018-12-14T12:22:05.424Z,46.90
2018-12-14T12:24:39.482Z,48.10
2018-12-14T12:27:11.717Z,43.40
2018-12-14T12:29:48.288Z,45.00
2018-12-14T12:32:20.031Z,45.20
2018-12-14T12:34:58.552Z,44.40
2018-12-14T12:37:29.259Z,46.30
2018-12-14T12:40:00.837Z,47.10
2018-12-14T12:42:30.745Z,45.80
2018-12-14T12:47:42.452Z,46.40
2018-12-14T12:50:27.844Z,42.30
2018-12-14T12:53:01.435Z,42.60
2018-12-14T12:55:31.635Z,43.70
2018-12-14T12:58:03.784Z,42.50
2018-12-14T13:00:35.379Z,43.90
2018-12-14T13:03:05.123Z,39.70
2018-12-14T13:05:35.106Z,41.60
2018-12-14T13:08:04.770Z,43.80
2018-12-14T13:10:57.147Z,41.30
2018-12-14T13:13:32.568Z,44.50
2018-12-14T13:16:03.099Z,42.10
2018-12-14T13:18:36.908Z,43.50
2018-12-14T13:21:16.461Z,45.00
2018-12-14T13:23:45.917Z,44.70
2018-12-14T13:26:15.363Z,44.40
2018-12-14T13:28:45.369Z,46.80
2018-12-14T13:31:15.279Z,46.10
2018-12-14T13:33:45.035Z,45.30
2018-12-14T13:39:09.961Z,43.50
2018-12-14T13:41:41.992Z,43.10
2018-12-14T13:44:16.492Z,42.90
2018-12-14T13:46:46.853Z,44.50
2018-12-14T13:49:17.209Z,43.30
2018-12-14T13:51:47.308Z,42.60
2018-12-14T13:54:16.672Z,43.50
2018-12-14T13:56:47.507Z,42.60
2018-12-14T13:59:18.354Z,42.60
2018-12-14T14:01:49.460Z,43.30
2018-12-14T14:04:20.173Z,42.90
2018-12-14T14:06:53.845Z,46.60
2018-12-14T14:09:29.698Z,41.60
2018-12-14T14:12:00.438Z,43.10
2018-12-14T14:14:31.797Z,41.90
2018-12-14T14:17:05.270Z,42.60
2018-12-14T14:19:36.237Z,42.70
2018-12-14T14:22:06.670Z,40.90
2018-12-14T14:24:36.854Z,40.80
2018-12-14T14:27:06.359Z,41.10
2018-12-14T14:29:37.802Z,41.20
2018-12-14T14:32:10.699Z,42.00
2018-12-14T14:34:44.092Z,40.40
2018-12-14T14:37:13.483Z,41.40
2018-12-14T14:39:46.288Z,40.00
2018-12-14T14:42:15.781Z,40.30
2018-12-14T14:44:45.150Z,42.20
2018-12-14T14:47:16.344Z,40.70
2018-12-14T14:49:48.087Z,40.00
2018-12-14T14:52:17.583Z,40.50
2018-12-14T14:54:48.015Z,40.50
2018-12-14T14:57:18.311Z,39.90
2018-12-14T14:59:48.781Z,39.70
2018-12-14T15:02:19.400Z,37.70
2018-12-14T15:07:31.941Z,36.80
2018-12-14T15:10:01.752Z,36.90
2018-12-14T15:15:24.414Z,39.80
2018-12-14T15:18:05.695Z,39.20
2018-12-14T15:20:36.246Z,40.50
2018-12-14T15:23:06.872Z,39.70
2018-12-14T15:25:36.374Z,39.60
2018-12-14T15:28:05.871Z,38.60
2018-12-14T15:30:35.300Z,37.60
2018-12-14T15:33:04.920Z,37.70
2018-12-14T15:35:35.050Z,38.00
2018-12-14T15:38:04.424Z,38.90
2018-12-14T15:40:33.855Z,39.90
2018-12-14T15:43:03.631Z,39.80
2018-12-14T15:45:33.123Z,40.70
2018-12-14T15:48:02.619Z,40.20
2018-12-14T15:50:32.369Z,39.90
2018-12-14T15:53:01.851Z,40.00
2018-12-14T15:55:32.622Z,39.60
2018-12-14T15:58:05.366Z,39.90
2018-12-14T16:00:37.544Z,39.80
2018-12-14T16:03:07.342Z,39.70
2018-12-14T16:05:38.140Z,40.30
2018-12-14T16:08:08.236Z,39.90
2018-12-14T16:10:38.308Z,40.70
2018-12-14T16:13:07.903Z,40.10
2018-12-14T16:15:37.373Z,41.00
2018-12-14T16:18:06.944Z,40.80
2018-12-14T16:20:36.260Z,40.50
2018-12-14T16:23:05.740Z,40.40
2018-12-14T16:25:35.464Z,40.90
2018-12-14T16:28:05.164Z,41.30
2018-12-14T16:30:34.568Z,41.20
2018-12-14T16:33:03.968Z,41.20
2018-12-14T16:35:33.303Z,41.30
2018-12-14T16:38:02.571Z,41.40
2018-12-14T16:40:31.871Z,42.10
2018-12-14T16:43:01.238Z,41.60
2018-12-14T16:45:30.713Z,41.80
2018-12-14T16:48:00.187Z,42.10
2018-12-14T16:50:30.001Z,41.90
2018-12-14T16:53:00.588Z,41.70
2018-12-14T16:55:30.098Z,41.70
2018-12-14T16:57:59.656Z,42.00
2018-12-14T17:00:29.267Z,42.00
2018-12-14T17:02:58.692Z,41.90
2018-12-14T17:05:28.046Z,43.40
2018-12-14T17:07:57.436Z,43.60
2018-12-14T17:10:26.756Z,44.50
2018-12-14T17:12:56.174Z,43.30
2018-12-14T17:15:25.676Z,42.80
2018-12-14T17:17:55.127Z,42.50
2018-12-14T17:20:24.512Z,42.60
2018-12-14T17:22:53.902Z,42.30
2018-12-14T17:25:23.201Z,42.50
2018-12-14T17:27:52.502Z,43.10
2018-12-14T17:30:21.833Z,42.90
2018-12-14T17:32:51.378Z,43.00
2018-12-14T17:35:20.686Z,42.90
2018-12-14T17:37:51.529Z,42.90
2018-12-14T17:40:21.010Z,43.20
2018-12-14T17:42:52.359Z,43.00
2018-12-14T17:45:21.782Z,43.30
2018-12-14T17:47:51.085Z,43.30
2018-12-14T17:50:20.380Z,43.80
2018-12-14T17:52:49.910Z,43.60
2018-12-14T17:55:19.424Z,43.70
2018-12-14T17:57:48.924Z,44.00
2018-12-14T18:00:18.179Z,44.10
2018-12-14T18:02:47.491Z,45.60
2018-12-14T18:05:16.727Z,45.20
2018-12-14T18:07:46.106Z,45.10
2018-12-14T18:10:15.295Z,44.50
2018-12-14T18:12:44.578Z,42.80
2018-12-14T18:15:15.041Z,41.40
2018-12-14T18:17:44.326Z,40.40
2018-12-14T18:20:13.564Z,39.40
2018-12-14T18:22:43.050Z,38.80
2018-12-14T18:25:12.721Z,38.00
2018-12-14T18:27:41.983Z,37.50
2018-12-14T18:30:11.494Z,36.90
2018-12-14T18:32:40.739Z,36.60
2018-12-14T18:35:09.988Z,35.50
2018-12-14T18:37:39.669Z,35.80
2018-12-14T18:40:09.303Z,35.50
2018-12-14T18:42:38.627Z,35.50
2018-12-14T18:45:08.817Z,35.10
2018-12-14T18:47:38.139Z,35.00
2018-12-14T18:50:08.033Z,34.80
2018-12-14T18:52:37.486Z,34.70
2018-12-14T18:55:06.839Z,34.40
2018-12-14T18:57:36.263Z,34.30
2018-12-14T19:00:06.233Z,34.10
2018-12-14T19:02:35.611Z,34.10
2018-12-14T19:05:05.337Z,34.00
2018-12-14T19:07:34.639Z,33.90
2018-12-14T19:10:05.609Z,33.90
2018-12-14T19:12:35.490Z,33.80
2018-12-14T19:15:04.908Z,33.70
2018-12-14T19:17:34.163Z,33.80
2018-12-14T19:20:03.406Z,33.80
2018-12-14T19:22:32.676Z,33.60
2018-12-14T19:25:01.905Z,33.50
2018-12-14T19:27:31.421Z,33.50
2018-12-14T19:30:00.784Z,33.60
2018-12-14T19:32:30.365Z,33.60
2018-12-14T19:34:59.756Z,33.50
2018-12-14T19:37:29.084Z,33.50
2018-12-14T19:39:59.426Z,33.50
2018-12-14T19:42:28.731Z,33.50
2018-12-14T19:44:58.045Z,33.30
2018-12-14T19:47:27.463Z,33.40
2018-12-14T19:49:56.782Z,33.50
2018-12-14T19:52:26.055Z,33.60
2018-12-14T19:54:55.532Z,33.80
2018-12-14T19:57:24.779Z,33.80
2018-12-14T19:59:54.081Z,34.00
2018-12-14T20:02:23.673Z,34.10
2018-12-14T20:04:52.969Z,34.10
2018-12-14T20:07:22.242Z,34.20
2018-12-14T20:09:51.565Z,34.20
2018-12-14T20:12:20.842Z,34.30
2018-12-14T20:14:50.250Z,34.30
2018-12-14T20:17:19.779Z,34.40
2018-12-14T20:19:49.154Z,34.40
2018-12-14T20:22:18.478Z,35.20
2018-12-14T20:24:47.869Z,34.50
2018-12-14T20:27:17.135Z,34.60
2018-12-14T20:29:46.567Z,35.30
2018-12-14T20:32:15.872Z,34.70
2018-12-14T20:34:45.220Z,34.70
2018-12-14T20:37:14.528Z,34.70
2018-12-14T20:39:43.887Z,34.80
2018-12-14T20:42:13.278Z,34.80
2018-12-14T20:44:42.680Z,34.80
2018-12-14T20:47:12.133Z,34.80
2018-12-14T20:49:41.445Z,34.90
2018-12-14T20:52:10.715Z,35.00
2018-12-14T20:54:40.267Z,35.00
2018-12-14T20:57:09.585Z,35.00
2018-12-14T20:59:38.930Z,35.00
2018-12-14T21:02:08.240Z,35.00
2018-12-14T21:04:37.735Z,35.00
2018-12-14T21:07:06.996Z,35.10
2018-12-14T21:09:36.419Z,35.00
2018-12-14T21:12:05.748Z,35.00
2018-12-14T21:14:35.203Z,35.00
2018-12-14T21:17:04.649Z,35.10
2018-12-14T21:19:33.960Z,35.00
2018-12-14T21:22:03.267Z,35.10
2018-12-14T21:24:32.645Z,35.10
2018-12-14T21:27:01.855Z,35.10
2018-12-14T21:29:31.147Z,35.00
2018-12-14T21:32:00.514Z,35.00
2018-12-14T21:34:29.810Z,35.10
2018-12-14T21:36:59.117Z,35.00
2018-12-14T21:39:28.454Z,35.20
2018-12-14T21:41:57.850Z,35.10
2018-12-14T21:44:27.159Z,35.00
2018-12-14T21:46:56.467Z,35.00
2018-12-14T21:49:25.935Z,35.00
2018-12-14T21:51:55.260Z,35.00
2018-12-14T21:54:24.830Z,35.00
2018-12-14T21:56:54.077Z,35.00
2018-12-14T21:59:23.402Z,35.00
2018-12-14T22:01:52.773Z,34.80
2018-12-14T22:04:22.076Z,34.90
2018-12-14T22:06:51.377Z,34.90
2018-12-14T22:09:20.739Z,34.80
2018-12-14T22:11:49.978Z,34.70
2018-12-14T22:14:19.218Z,34.70
2018-12-14T22:16:48.875Z,34.70
2018-12-14T22:19:18.172Z,34.70
2018-12-14T22:21:47.552Z,34.70
2018-12-14T22:24:16.882Z,34.70
2018-12-14T22:26:46.266Z,34.60
2018-12-14T22:29:15.535Z,34.60
2018-12-14T22:31:44.852Z,34.70
2018-12-14T22:34:14.186Z,34.60
2018-12-14T22:36:43.538Z,34.70
2018-12-14T22:39:13.202Z,34.60
2018-12-14T22:41:42.448Z,34.60
2018-12-14T22:44:11.697Z,34.60
2018-12-14T22:46:45.639Z,34.60
2018-12-14T22:49:12.417Z,34.50
2018-12-14T22:51:41.720Z,34.50
2018-12-14T22:54:10.973Z,34.50
2018-12-14T22:56:40.252Z,34.40
2018-12-14T22:59:09.548Z,34.40
2018-12-14T23:01:38.859Z,34.40
2018-12-14T23:04:08.259Z,34.40
2018-12-14T23:06:37.614Z,34.40
2018-12-14T23:09:07.365Z,34.40
2018-12-14T23:11:38.719Z,34.30
2018-12-14T23:14:08.100Z,34.30
2018-12-14T23:16:37.409Z,34.20
2018-12-14T23:19:06.725Z,34.90
2018-12-14T23:21:36.043Z,34.20
2018-12-14T23:24:05.392Z,34.20
2018-12-14T23:26:34.838Z,34.10
2018-12-14T23:29:04.234Z,34.10
2018-12-14T23:31:33.620Z,34.10
2018-12-14T23:34:02.932Z,34.00
2018-12-14T23:36:32.304Z,34.00
2018-12-14T23:39:01.674Z,34.70
2018-12-14T23:41:33.031Z,33.70
2018-12-14T23:44:02.476Z,33.80
2018-12-14T23:46:31.767Z,33.80
2018-12-14T23:49:01.012Z,33.80
2018-12-14T23:51:30.664Z,33.80
2018-12-14T23:54:00.005Z,33.80
2018-12-14T23:56:29.335Z,34.50
2018-12-14T23:58:58.780Z,33.80
